sensor_id;sensor_type;location;lat;lon;timestamp;P1;P2;P0
61542;PMS5003;47414;43.168;44.812;2022-10-16T03:46:47;29.75;27.75;18.50
61542;PMS5003;47414;43.168;44.812;2022-10-16T03:51:47;30.67;29.33;19.67
61542;PMS5003;47414;43.168;44.812;2022-10-16T03:56:48;31.25;29.50;19.00
61542;PMS5003;47414;43.168;44.812;2022-10-16T04:01:48;32.00;28.75;18.25
61542;PMS5003;47414;43.168;44.812;2022-10-16T04:06:49;33.00;31.25;21.00
61542;PMS5003;47414;43.168;44.812;2022-10-16T04:11:49;29.75;27.75;18.25
61542;PMS5003;47414;43.168;44.812;2022-10-16T04:16:50;29.75;27.75;18.00
61542;PMS5003;47414;43.168;44.812;2022-10-16T04:21:50;21.50;18.25;15.25
61542;PMS5003;47414;43.168;44.812;2022-10-16T04:26:51;25.00;23.00;13.75
61542;PMS5003;47414;43.168;44.812;2022-10-16T04:31:51;15.00;14.75;9.50
61542;PMS5003;47414;43.168;44.812;2022-10-16T04:36:51;15.00;15.00;10.75
61542;PMS5003;47414;43.168;44.812;2022-10-16T04:41:52;11.75;11.00;6.75
61542;PMS5003;47414;43.168;44.812;2022-10-16T04:46:52;14.75;14.50;7.25
61542;PMS5003;47414;43.168;44.812;2022-10-16T04:51:54;12.75;12.00;7.75
61542;PMS5003;47414;43.168;44.812;2022-10-16T04:56:54;13.25;12.50;8.25
61542;PMS5003;47414;43.168;44.812;2022-10-16T05:01:54;14.00;11.50;6.00
61542;PMS5003;47414;43.168;44.812;2022-10-16T05:06:55;5.25;5.25;4.50
61542;PMS5003;47414;43.168;44.812;2022-10-16T05:11:55;14.50;13.50;10.75
61542;PMS5003;47414;43.168;44.812;2022-10-16T05:16:56;16.50;15.00;11.00
61542;PMS5003;47414;43.168;44.812;2022-10-16T05:21:56;17.00;16.00;10.00
61542;PMS5003;47414;43.168;44.812;2022-10-16T05:26:57;19.75;18.75;11.00
61542;PMS5003;47414;43.168;44.812;2022-10-16T05:31:57;21.25;19.50;14.00
61542;PMS5003;47414;43.168;44.812;2022-10-16T05:36:58;27.25;25.00;16.75
61542;PMS5003;47414;43.168;44.812;2022-10-16T05:41:58;25.00;22.50;17.00
61542;PMS5003;47414;43.168;44.812;2022-10-16T05:46:58;27.75;23.25;16.00
61542;PMS5003;47414;43.168;44.812;2022-10-16T05:51:59;19.00;17.00;9.00
61542;PMS5003;47414;43.168;44.812;2022-10-16T06:02:03;15.25;15.00;10.00
61542;PMS5003;47414;43.168;44.812;2022-10-16T06:07:03;17.25;17.25;12.25
61542;PMS5003;47414;43.168;44.812;2022-10-16T06:12:04;16.50;15.50;10.50
61542;PMS5003;47414;43.168;44.812;2022-10-16T06:17:04;13.00;11.50;9.50
61542;PMS5003;47414;43.168;44.812;2022-10-16T06:22:05;13.50;12.00;8.25
61542;PMS5003;47414;43.168;44.812;2022-10-16T06:27:05;14.00;11.75;7.00
61542;PMS5003;47414;43.168;44.812;2022-10-16T06:32:05;8.00;7.00;5.00
61542;PMS5003;47414;43.168;44.812;2022-10-16T06:37:06;9.25;9.25;7.00
61542;PMS5003;47414;43.168;44.812;2022-10-16T06:42:06;12.00;11.00;8.50
61542;PMS5003;47414;43.168;44.812;2022-10-16T06:47:07;9.75;9.50;7.75
61542;PMS5003;47414;43.168;44.812;2022-10-16T06:52:07;6.50;5.50;4.00
61542;PMS5003;47414;43.168;44.812;2022-10-16T06:57:07;9.00;8.50;6.25
61542;PMS5003;47414;43.168;44.812;2022-10-16T07:02:08;5.50;5.50;2.00
61542;PMS5003;47414;43.168;44.812;2022-10-16T07:07:08;8.75;8.25;6.25
61542;PMS5003;47414;43.168;44.812;2022-10-16T07:12:09;2.00;2.00;1.25
61542;PMS5003;47414;43.168;44.812;2022-10-16T07:17:09;5.75;5.75;4.50
61542;PMS5003;47414;43.168;44.812;2022-10-16T07:22:10;5.00;5.00;5.00
61542;PMS5003;47414;43.168;44.812;2022-10-16T07:27:10;6.00;6.00;4.50
61542;PMS5003;47414;43.168;44.812;2022-10-16T07:32:10;9.75;9.00;6.00
61542;PMS5003;47414;43.168;44.812;2022-10-16T07:37:11;7.25;7.00;5.00
61542;PMS5003;47414;43.168;44.812;2022-10-16T07:42:11;7.00;6.25;4.50
61542;PMS5003;47414;43.168;44.812;2022-10-16T07:47:12;6.00;6.00;5.00
61542;PMS5003;47414;43.168;44.812;2022-10-16T07:52:12;8.00;8.00;6.00
61542;PMS5003;47414;43.168;44.812;2022-10-16T07:57:12;8.25;7.50;5.00
61542;PMS5003;47414;43.168;44.812;2022-10-16T08:02:13;6.75;6.25;4.50
61542;PMS5003;47414;43.168;44.812;2022-10-16T08:07:13;6.25;6.00;5.00
61542;PMS5003;47414;43.168;44.812;2022-10-16T08:12:14;6.00;6.00;4.00
61542;PMS5003;47414;43.168;44.812;2022-10-16T08:17:14;3.00;2.75;1.25
61542;PMS5003;47414;43.168;44.812;2022-10-16T08:22:15;3.25;3.25;2.00
61542;PMS5003;47414;43.168;44.812;2022-10-16T08:27:15;4.00;4.00;3.00
61542;PMS5003;47414;43.168;44.812;2022-10-16T08:32:16;6.00;6.00;4.50
61542;PMS5003;47414;43.168;44.812;2022-10-16T08:37:16;6.00;6.00;4.00
61542;PMS5003;47414;43.168;44.812;2022-10-16T08:47:42;6.25;6.25;4.50
61542;PMS5003;47414;43.168;44.812;2022-10-16T08:52:45;5.00;5.00;4.00
61542;PMS5003;47414;43.168;44.812;2022-10-16T08:57:45;6.50;6.50;5.50
61542;PMS5003;47414;43.168;44.812;2022-10-16T09:23:12;3.75;3.75;2.00
61542;PMS5003;47414;43.168;44.812;2022-10-16T09:28:14;1.25;1.25;1.00
61542;PMS5003;47414;43.168;44.812;2022-10-16T09:33:14;4.50;4.50;3.75
61542;PMS5003;47414;43.168;44.812;2022-10-16T09:38:27;2.00;2.00;2.00
61542;PMS5003;47414;43.168;44.812;2022-10-16T09:48:39;1.00;1.00;0.25
61542;PMS5003;47414;43.168;44.812;2022-10-16T09:53:44;2.00;2.00;2.00
61542;PMS5003;47414;43.168;44.812;2022-10-16T09:58:49;2.25;2.25;1.00
61542;PMS5003;47414;43.168;44.812;2022-10-16T10:03:50;4.00;4.00;2.00
61542;PMS5003;47414;43.168;44.812;2022-10-16T10:08:57;4.25;4.25;3.00
61542;PMS5003;47414;43.168;44.812;2022-10-16T10:19:22;3.00;3.00;2.00
61542;PMS5003;47414;43.168;44.812;2022-10-16T10:24:23;3.25;3.25;2.00
61542;PMS5003;47414;43.168;44.812;2022-10-16T10:29:46;2.25;2.25;2.00
61542;PMS5003;47414;43.168;44.812;2022-10-16T10:39:59;3.00;3.00;2.75
61542;PMS5003;47414;43.168;44.812;2022-10-16T11:00:20;3.00;3.00;2.00
61542;PMS5003;47414;43.168;44.812;2022-10-16T11:05:31;2.25;2.00;2.00
61542;PMS5003;47414;43.168;44.812;2022-10-16T11:15:57;4.00;4.00;3.00
61542;PMS5003;47414;43.168;44.812;2022-10-16T11:21:02;4.50;4.00;3.25
61542;PMS5003;47414;43.168;44.812;2022-10-16T11:26:05;4.50;3.50;3.00
61542;PMS5003;47414;43.168;44.812;2022-10-16T11:41:49;3.75;3.75;3.00
61542;PMS5003;47414;43.168;44.812;2022-10-16T11:46:52;5.00;5.00;4.00
61542;PMS5003;47414;43.168;44.812;2022-10-16T11:51:57;4.75;4.50;3.25
61542;PMS5003;47414;43.168;44.812;2022-10-16T11:56:59;3.50;3.50;2.00
61542;PMS5003;47414;43.168;44.812;2022-10-16T12:02:26;3.00;2.50;2.00
61542;PMS5003;47414;43.168;44.812;2022-10-16T12:07:35;1.00;1.00;0.00
61542;PMS5003;47414;43.168;44.812;2022-10-16T12:12:39;0.00;0.00;0.00
61542;PMS5003;47414;43.168;44.812;2022-10-16T12:17:39;1.00;1.00;1.00
61542;PMS5003;47414;43.168;44.812;2022-10-16T12:22:50;2.00;1.00;0.00
61542;PMS5003;47414;43.168;44.812;2022-10-16T12:33:24;0.00;0.00;0.00
61542;PMS5003;47414;43.168;44.812;2022-10-16T12:48:32;0.00;0.00;0.00
61542;PMS5003;47414;43.168;44.812;2022-10-16T12:53:33;0.50;0.50;0.00
61542;PMS5003;47414;43.168;44.812;2022-10-16T12:58:38;0.00;0.00;0.00
61542;PMS5003;47414;43.168;44.812;2022-10-16T13:18:56;2.50;1.50;0.50
61542;PMS5003;47414;43.168;44.812;2022-10-16T13:24:10;1.00;1.00;0.50
61542;PMS5003;47414;43.168;44.812;2022-10-16T13:29:13;1.00;1.00;1.00
61542;PMS5003;47414;43.168;44.812;2022-10-16T13:34:18;1.75;1.00;0.00
61542;PMS5003;47414;43.168;44.812;2022-10-16T13:44:22;1.00;1.00;1.00
61542;PMS5003;47414;43.168;44.812;2022-10-16T13:49:23;1.00;1.00;1.00
61542;PMS5003;47414;43.168;44.812;2022-10-16T13:54:23;1.00;1.00;1.00
61542;PMS5003;47414;43.168;44.812;2022-10-16T13:59:42;3.00;2.00;1.00
61542;PMS5003;47414;43.168;44.812;2022-10-16T14:04:43;1.00;1.00;0.75
61542;PMS5003;47414;43.168;44.812;2022-10-16T14:09:47;2.00;1.75;1.00
61542;PMS5003;47414;43.168;44.812;2022-10-16T14:14:49;2.00;2.00;1.00
61542;PMS5003;47414;43.168;44.812;2022-10-16T14:19:51;1.00;1.00;1.00
61542;PMS5003;47414;43.168;44.812;2022-10-16T14:24:52;1.75;1.75;1.00
61542;PMS5003;47414;43.168;44.812;2022-10-16T14:35:22;3.75;3.75;3.00
61542;PMS5003;47414;43.168;44.812;2022-10-16T14:40:24;4.25;4.25;3.00
61542;PMS5003;47414;43.168;44.812;2022-10-16T14:45:27;4.50;4.50;3.00
61542;PMS5003;47414;43.168;44.812;2022-10-16T14:50:28;3.50;3.50;2.25
61542;PMS5003;47414;43.168;44.812;2022-10-16T14:55:29;3.00;3.00;2.00
61542;PMS5003;47414;43.168;44.812;2022-10-16T15:00:29;3.00;3.00;2.00
61542;PMS5003;47414;43.168;44.812;2022-10-16T15:05:30;3.25;3.00;2.00
61542;PMS5003;47414;43.168;44.812;2022-10-16T15:10:33;3.50;3.50;2.25
61542;PMS5003;47414;43.168;44.812;2022-10-16T15:15:37;2.00;2.00;1.75
61542;PMS5003;47414;43.168;44.812;2022-10-16T15:20:38;2.00;2.00;1.00
61542;PMS5003;47414;43.168;44.812;2022-10-16T15:30:40;3.00;3.00;2.25
61542;PMS5003;47414;43.168;44.812;2022-10-16T15:35:41;5.50;5.00;3.00
61542;PMS5003;47414;43.168;44.812;2022-10-16T15:40:41;2.00;2.00;1.25
61542;PMS5003;47414;43.168;44.812;2022-10-16T15:45:42;3.00;3.00;2.00
61542;PMS5003;47414;43.168;44.812;2022-10-16T15:50:42;3.00;3.00;1.00
61542;PMS5003;47414;43.168;44.812;2022-10-16T15:55:43;4.00;4.00;2.75
61542;PMS5003;47414;43.168;44.812;2022-10-16T16:00:43;3.50;3.50;2.50
61542;PMS5003;47414;43.168;44.812;2022-10-16T16:05:44;5.75;5.25;4.00
61542;PMS5003;47414;43.168;44.812;2022-10-16T16:10:44;5.75;4.75;3.25
61542;PMS5003;47414;43.168;44.812;2022-10-16T16:15:45;3.25;3.25;2.00
61542;PMS5003;47414;43.168;44.812;2022-10-16T16:20:45;4.00;4.00;2.00
61542;PMS5003;47414;43.168;44.812;2022-10-16T16:26:01;5.00;5.00;3.50
61542;PMS5003;47414;43.168;44.812;2022-10-16T16:31:03;7.25;6.25;4.50
61542;PMS5003;47414;43.168;44.812;2022-10-16T16:36:04;5.50;5.50;4.00
61542;PMS5003;47414;43.168;44.812;2022-10-16T16:41:15;10.25;8.75;5.25
61542;PMS5003;47414;43.168;44.812;2022-10-16T16:46:16;7.25;7.25;5.25
61542;PMS5003;47414;43.168;44.812;2022-10-16T16:51:17;11.25;9.00;5.00
61542;PMS5003;47414;43.168;44.812;2022-10-16T16:56:17;9.00;8.00;4.75
61542;PMS5003;47414;43.168;44.812;2022-10-16T17:01:19;10.50;10.00;6.00
61542;PMS5003;47414;43.168;44.812;2022-10-16T17:06:20;13.50;13.00;7.25
61542;PMS5003;47414;43.168;44.812;2022-10-16T17:11:22;12.25;11.75;6.25
61542;PMS5003;47414;43.168;44.812;2022-10-16T17:16:31;11.50;11.00;7.00
61542;PMS5003;47414;43.168;44.812;2022-10-16T17:21:33;13.75;13.00;7.50
61542;PMS5003;47414;43.168;44.812;2022-10-16T17:26:33;15.00;14.00;8.00
61542;PMS5003;47414;43.168;44.812;2022-10-16T17:31:34;18.00;16.75;8.25
61542;PMS5003;47414;43.168;44.812;2022-10-16T17:36:36;16.25;14.25;8.50
61542;PMS5003;47414;43.168;44.812;2022-10-16T17:41:37;13.50;12.00;7.00
61542;PMS5003;47414;43.168;44.812;2022-10-16T17:46:37;11.50;9.50;7.00
61542;PMS5003;47414;43.168;44.812;2022-10-16T17:51:38;12.00;12.00;7.25
61542;PMS5003;47414;43.168;44.812;2022-10-16T17:56:38;16.50;15.00;9.00
61542;PMS5003;47414;43.168;44.812;2022-10-16T18:01:39;12.50;11.25;7.75
61542;PMS5003;47414;43.168;44.812;2022-10-16T18:06:41;12.00;11.75;6.75
61542;PMS5003;47414;43.168;44.812;2022-10-16T18:11:42;17.50;16.00;12.25
61542;PMS5003;47414;43.168;44.812;2022-10-16T18:16:42;16.00;13.75;7.25
61542;PMS5003;47414;43.168;44.812;2022-10-16T18:21:42;14.50;13.50;8.00
61542;PMS5003;47414;43.168;44.812;2022-10-16T18:26:43;20.25;16.50;10.00
61542;PMS5003;47414;43.168;44.812;2022-10-16T18:31:44;14.00;14.00;9.00
61542;PMS5003;47414;43.168;44.812;2022-10-16T18:36:44;16.00;14.75;8.75
61542;PMS5003;47414;43.168;44.812;2022-10-16T18:41:46;17.00;15.50;9.25
61542;PMS5003;47414;43.168;44.812;2022-10-16T18:46:46;13.75;13.75;7.00
61542;PMS5003;47414;43.168;44.812;2022-10-16T18:51:49;15.75;15.25;9.50
61542;PMS5003;47414;43.168;44.812;2022-10-16T18:56:52;16.75;14.25;9.50
61542;PMS5003;47414;43.168;44.812;2022-10-16T19:01:53;16.25;16.00;8.75
61542;PMS5003;47414;43.168;44.812;2022-10-16T19:11:58;15.50;14.25;7.00
61542;PMS5003;47414;43.168;44.812;2022-10-16T19:16:58;15.00;14.50;10.00
61542;PMS5003;47414;43.168;44.812;2022-10-16T19:21:59;15.00;14.00;7.25
61542;PMS5003;47414;43.168;44.812;2022-10-16T19:26:59;14.50;13.75;7.00
61542;PMS5003;47414;43.168;44.812;2022-10-16T19:32:00;8.75;8.75;6.00
61542;PMS5003;47414;43.168;44.812;2022-10-16T19:37:00;13.50;12.75;6.75
61542;PMS5003;47414;43.168;44.812;2022-10-16T19:42:00;7.75;7.50;4.50
61542;PMS5003;47414;43.168;44.812;2022-10-16T19:47:01;12.25;8.75;5.50
61542;PMS5003;47414;43.168;44.812;2022-10-16T19:52:01;14.75;13.75;6.25
61542;PMS5003;47414;43.168;44.812;2022-10-16T19:57:02;15.00;14.00;7.75
61542;PMS5003;47414;43.168;44.812;2022-10-16T20:02:02;8.00;8.00;5.25
61542;PMS5003;47414;43.168;44.812;2022-10-16T20:07:03;11.00;10.50;6.00
61542;PMS5003;47414;43.168;44.812;2022-10-16T20:12:03;13.50;10.75;5.00
61542;PMS5003;47414;43.168;44.812;2022-10-16T20:17:04;9.25;8.75;4.75
61542;PMS5003;47414;43.168;44.812;2022-10-16T20:22:04;8.00;8.00;5.00
61542;PMS5003;47414;43.168;44.812;2022-10-16T20:27:05;7.00;7.00;5.00
61542;PMS5003;47414;43.168;44.812;2022-10-16T20:32:05;9.75;8.50;6.50
61542;PMS5003;47414;43.168;44.812;2022-10-16T20:37:06;9.00;9.00;5.50
61542;PMS5003;47414;43.168;44.812;2022-10-16T20:42:06;6.25;4.25;1.50
61542;PMS5003;47414;43.168;44.812;2022-10-16T20:47:07;10.00;8.00;4.75
61542;PMS5003;47414;43.168;44.812;2022-10-16T20:52:07;9.00;8.75;7.00
61542;PMS5003;47414;43.168;44.812;2022-10-16T20:57:07;11.00;10.50;5.00
61542;PMS5003;47414;43.168;44.812;2022-10-16T21:02:10;12.75;9.25;7.00
61542;PMS5003;47414;43.168;44.812;2022-10-16T21:07:11;9.75;8.75;6.75
61542;PMS5003;47414;43.168;44.812;2022-10-16T21:12:12;11.25;10.25;7.00
61542;PMS5003;47414;43.168;44.812;2022-10-16T21:17:12;15.75;14.25;7.75
61542;PMS5003;47414;43.168;44.812;2022-10-16T21:22:13;6.25;5.75;3.00
61542;PMS5003;47414;43.168;44.812;2022-10-16T21:27:13;13.25;12.75;8.75
61542;PMS5003;47414;43.168;44.812;2022-10-16T21:32:14;12.25;11.75;9.00
61542;PMS5003;47414;43.168;44.812;2022-10-16T21:37:14;13.50;13.00;8.00
61542;PMS5003;47414;43.168;44.812;2022-10-16T21:42:14;12.25;11.25;7.00
61542;PMS5003;47414;43.168;44.812;2022-10-16T21:47:15;14.25;12.75;8.50
61542;PMS5003;47414;43.168;44.812;2022-10-16T21:52:15;12.75;11.50;7.50
61542;PMS5003;47414;43.168;44.812;2022-10-16T21:57:16;13.50;12.50;8.00
61542;PMS5003;47414;43.168;44.812;2022-10-16T22:02:16;13.50;13.50;7.50
61542;PMS5003;47414;43.168;44.812;2022-10-16T22:07:17;11.50;11.50;7.25
61542;PMS5003;47414;43.168;44.812;2022-10-16T22:12:18;12.75;12.00;5.75
61542;PMS5003;47414;43.168;44.812;2022-10-16T22:17:24;13.75;13.50;7.75
61542;PMS5003;47414;43.168;44.812;2022-10-16T22:22:25;13.50;12.25;8.00
61542;PMS5003;47414;43.168;44.812;2022-10-16T22:27:27;11.25;10.75;6.00
61542;PMS5003;47414;43.168;44.812;2022-10-16T22:32:29;7.00;7.00;5.00
61542;PMS5003;47414;43.168;44.812;2022-10-16T22:37:29;15.00;13.50;7.25
61542;PMS5003;47414;43.168;44.812;2022-10-16T22:42:35;14.50;13.25;8.00
61542;PMS5003;47414;43.168;44.812;2022-10-16T22:47:36;11.50;10.25;7.25
61542;PMS5003;47414;43.168;44.812;2022-10-16T22:52:36;13.75;13.00;7.25
61542;PMS5003;47414;43.168;44.812;2022-10-16T22:57:36;12.00;10.75;5.75
61542;PMS5003;47414;43.168;44.812;2022-10-16T23:02:37;7.50;7.50;5.25
61542;PMS5003;47414;43.168;44.812;2022-10-16T23:07:38;11.00;10.00;5.75
61542;PMS5003;47414;43.168;44.812;2022-10-16T23:12:38;10.75;10.25;7.00
61542;PMS5003;47414;43.168;44.812;2022-10-16T23:17:39;5.00;5.00;3.00
61542;PMS5003;47414;43.168;44.812;2022-10-16T23:22:39;9.75;9.00;5.00
61542;PMS5003;47414;43.168;44.812;2022-10-16T23:27:40;8.00;7.75;4.50
61542;PMS5003;47414;43.168;44.812;2022-10-16T23:32:40;8.00;7.25;5.00
61542;PMS5003;47414;43.168;44.812;2022-10-16T23:37:40;11.50;10.75;6.25
61542;PMS5003;47414;43.168;44.812;2022-10-16T23:42:41;6.50;6.50;5.00
61542;PMS5003;47414;43.168;44.812;2022-10-16T23:47:41;7.75;7.75;5.00
61542;PMS5003;47414;43.168;44.812;2022-10-16T23:52:49;5.00;4.00;3.00
61542;PMS5003;47414;43.168;44.812;2022-10-16T23:57:49;7.00;7.00;5.00
